Lakeland Linder Regional Airport
KLAL : now visible

Airfield :











YOU CAN JOIN US ON...

 
LOGIN :

Register | Disclaimer

   EN    FR    IT 

 









Legend :    VFR   Marginal VFR   IFR   Intensive IFR   Very Intensive IFR
Visi :
Ceiling :
>= 8 km
>= 3000ft
5 to 8 km
1000 to 3000 ft
1500m to 5 km
500 to 1000 ft
800 to 1500m
200 to 500 ft
< 800m
< 200 ft
Symbols :   Thunderstorms  Fog  Heavy snow  Heavy precipitations  Wind > 20 kt






- Airport Elevation : 142 ft


KLAL - Lakeland Linder Regional

CURRENT METAR :
  • 262250Z 07010G17KT 10SM SCT075 28/23 A2998

EXPIRED METARs :
  • 262150Z 10009KT 10SM SCT090 31/21 A2996
  • 262050Z 11011G15KT 10SM SCT090 32/22 A2996

TAF KLAL
Valid from the 27 at 00:00 until the 28 at 00:00 UTC


262327Z 2700/2724 08008KT P6SM SCT080
FM270300 08005KT P6SM SKC
FM270900 VRB04KT 5SM BR SCT005
FM271400 10008KT P6SM SCT025
FM271800 10008KT P6SM VCSH SCT040
KZMA FIR / North America



MET'MAP, your aeronautical weather chart ! - Copyright ORBIFLY December 2007 - Disclaimer

ORBIFLY MET'MAP TEAM :

Programming & Development : Alexandra Zaïnal
Concept & original design : Baudouin d'Aumeries
Assistance for programming : Marc-Olivier Méhu
Technical & hardware support : Manuel Goepfert

Contact : metmap@orbifly.com




SOURCES & CREDITS :

   NOAA       Earth
Advisory